JST7421 YBCG-YSSY
Flight info
| Callsign | JST7421 |
|---|---|
| Flight time | 1h 8m |
| Altitude | 36000 |
| Route | GOMOL Q16 APAGI H91 IGDAM/N0449F350 H652 BOREE |
| Aircraft | A321/M-SDE3FGHIRWY/LB1 |
Departure
| Time | 2026-04-30 12:03 |
|---|---|
| Airport | Gold Coast Airport (YBCG) |
Arrival
| Time | 2026-04-30 13:12 |
|---|---|
| Airport | Sydney Kingsford Smith International Airport (YSSY) |
| Time | Latitude | Longitude | Altitude | Speed | Heading |
|---|---|---|---|---|---|
| 2026-04-30 11:36 | -28.16769 | 153.51200 | 26 ft | 0 kts | 60° |
| 2026-04-30 11:53 | -28.16775 | 153.51189 | 30 ft | 4 kts | 60° |
| 2026-04-30 11:53 | -28.16788 | 153.51162 | 30 ft | 4 kts | 60° |
| 2026-04-30 11:53 | -28.16801 | 153.51135 | 30 ft | 4 kts | 60° |
| 2026-04-30 11:53 | -28.16813 | 153.51112 | 29 ft | 1 kts | 60° |
| 2026-04-30 11:54 | -28.16813 | 153.51111 | 26 ft | 0 kts | 60° |
| 2026-04-30 11:57 | -28.16808 | 153.51113 | 26 ft | 1 kts | 14° |
| 2026-04-30 11:57 | -28.16763 | 153.51100 | 28 ft | 11 kts | 334° |
| 2026-04-30 11:57 | -28.16692 | 153.51054 | 27 ft | 12 kts | 330° |
| 2026-04-30 11:57 | -28.16614 | 153.51004 | 31 ft | 14 kts | 330° |
| 2026-04-30 11:58 | -28.16527 | 153.50949 | 30 ft | 15 kts | 330° |
| 2026-04-30 11:58 | -28.16495 | 153.50858 | 26 ft | 13 kts | 266° |
| 2026-04-30 11:58 | -28.16439 | 153.50787 | 29 ft | 14 kts | 329° |
| 2026-04-30 11:58 | -28.16344 | 153.50727 | 28 ft | 18 kts | 330° |
| 2026-04-30 11:59 | -28.16228 | 153.50652 | 29 ft | 20 kts | 331° |
| 2026-04-30 11:59 | -28.16102 | 153.50573 | 25 ft | 21 kts | 330° |
| 2026-04-30 11:59 | -28.15971 | 153.50490 | 27 ft | 22 kts | 330° |
| 2026-04-30 11:59 | -28.15834 | 153.50402 | 27 ft | 23 kts | 331° |
| 2026-04-30 12:00 | -28.15699 | 153.50317 | 30 ft | 17 kts | 331° |
| 2026-04-30 12:00 | -28.15611 | 153.50242 | 27 ft | 14 kts | 298° |
| 2026-04-30 12:00 | -28.15608 | 153.50192 | 28 ft | 1 kts | 255° |
| 2026-04-30 12:00 | -28.15608 | 153.50191 | 26 ft | 0 kts | 255° |
| 2026-04-30 12:01 | -28.15608 | 153.50190 | 26 ft | 1 kts | 255° |
| 2026-04-30 12:02 | -28.15615 | 153.50170 | 28 ft | 9 kts | 247° |
| 2026-04-30 12:02 | -28.15664 | 153.50094 | 30 ft | 13 kts | 205° |
| 2026-04-30 12:02 | -28.15761 | 153.50140 | 27 ft | 22 kts | 149° |
| 2026-04-30 12:02 | -28.16037 | 153.50315 | 26 ft | 80 kts | 150° |
| 2026-04-30 12:03 | -28.16721 | 153.50750 | 30 ft | 143 kts | 151° |
| 2026-04-30 12:03 | -28.18617 | 153.52000 | 1207 ft | 154 kts | 149° |
| 2026-04-30 12:03 | -28.19536 | 153.52574 | 2021 ft | 148 kts | 149° |
| 2026-04-30 12:04 | -28.20462 | 153.53113 | 2488 ft | 156 kts | 151° |
| 2026-04-30 12:04 | -28.21499 | 153.53623 | 2888 ft | 169 kts | 155° |
| 2026-04-30 12:04 | -28.22655 | 153.54070 | 3212 ft | 183 kts | 159° |
| 2026-04-30 12:04 | -28.23919 | 153.54501 | 3530 ft | 197 kts | 160° |
| 2026-04-30 12:05 | -28.25330 | 153.54758 | 3816 ft | 219 kts | 176° |
| 2026-04-30 12:05 | -28.26942 | 153.54443 | 3992 ft | 253 kts | 198° |
| 2026-04-30 12:05 | -28.28448 | 153.53306 | 4626 ft | 270 kts | 223° |
| 2026-04-30 12:05 | -28.29499 | 153.51517 | 5446 ft | 273 kts | 236° |
| 2026-04-30 12:06 | -28.30503 | 153.49686 | 6192 ft | 277 kts | 232° |
| 2026-04-30 12:06 | -28.31613 | 153.47874 | 6867 ft | 281 kts | 231° |
| 2026-04-30 12:06 | -28.32748 | 153.46091 | 7564 ft | 283 kts | 230° |
| 2026-04-30 12:06 | -28.33897 | 153.44268 | 8307 ft | 286 kts | 231° |
| 2026-04-30 12:07 | -28.35048 | 153.42395 | 8982 ft | 293 kts | 231° |
| 2026-04-30 12:07 | -28.36215 | 153.40464 | 9609 ft | 299 kts | 232° |
| 2026-04-30 12:07 | -28.37395 | 153.38492 | 10261 ft | 307 kts | 232° |
| 2026-04-30 12:07 | -28.38638 | 153.36417 | 10492 ft | 329 kts | 232° |
| 2026-04-30 12:08 | -28.39973 | 153.34195 | 10621 ft | 352 kts | 232° |
| 2026-04-30 12:08 | -28.41394 | 153.31834 | 10795 ft | 371 kts | 233° |
| 2026-04-30 12:08 | -28.42862 | 153.29381 | 11293 ft | 378 kts | 233° |
| 2026-04-30 12:08 | -28.44345 | 153.26890 | 11922 ft | 383 kts | 233° |
| 2026-04-30 12:09 | -28.45840 | 153.24375 | 12608 ft | 385 kts | 234° |
| 2026-04-30 12:09 | -28.47345 | 153.21847 | 13280 ft | 387 kts | 234° |
| 2026-04-30 12:09 | -28.48861 | 153.19299 | 13928 ft | 391 kts | 234° |
| 2026-04-30 12:09 | -28.50390 | 153.16734 | 14513 ft | 394 kts | 234° |
| 2026-04-30 12:10 | -28.51937 | 153.14144 | 15110 ft | 397 kts | 234° |
| 2026-04-30 12:10 | -28.53474 | 153.11570 | 15662 ft | 400 kts | 234° |
| 2026-04-30 12:10 | -28.55042 | 153.08946 | 16289 ft | 402 kts | 234° |
| 2026-04-30 12:10 | -28.56616 | 153.06301 | 16876 ft | 405 kts | 234° |
| 2026-04-30 12:11 | -28.58200 | 153.03638 | 17484 ft | 407 kts | 234° |
| 2026-04-30 12:11 | -28.59792 | 153.00960 | 18068 ft | 410 kts | 233° |
| 2026-04-30 12:11 | -28.61397 | 152.98267 | 18674 ft | 412 kts | 234° |
| 2026-04-30 12:11 | -28.63012 | 152.95556 | 19166 ft | 415 kts | 234° |
| 2026-04-30 12:12 | -28.64631 | 152.92834 | 19673 ft | 417 kts | 235° |
| 2026-04-30 12:12 | -28.66261 | 152.90088 | 20130 ft | 420 kts | 235° |
| 2026-04-30 12:12 | -28.67901 | 152.87319 | 20603 ft | 423 kts | 235° |
| 2026-04-30 12:12 | -28.69548 | 152.84536 | 21077 ft | 425 kts | 235° |
| 2026-04-30 12:13 | -28.71179 | 152.81775 | 21535 ft | 427 kts | 234° |
| 2026-04-30 12:13 | -28.72839 | 152.78964 | 22000 ft | 429 kts | 235° |
| 2026-04-30 12:13 | -28.74506 | 152.76138 | 22460 ft | 431 kts | 235° |
| 2026-04-30 12:13 | -28.76183 | 152.73296 | 22901 ft | 433 kts | 235° |
| 2026-04-30 12:14 | -28.77867 | 152.70443 | 23342 ft | 435 kts | 235° |
| 2026-04-30 12:14 | -28.79560 | 152.67576 | 23763 ft | 437 kts | 235° |
| 2026-04-30 12:14 | -28.81257 | 152.64699 | 24166 ft | 439 kts | 236° |
| 2026-04-30 12:14 | -28.82999 | 152.61834 | 24535 ft | 440 kts | 231° |
| 2026-04-30 12:15 | -28.85066 | 152.59251 | 24881 ft | 442 kts | 222° |
| 2026-04-30 12:15 | -28.87495 | 152.57089 | 25205 ft | 444 kts | 212° |
| 2026-04-30 12:15 | -28.90199 | 152.55374 | 25546 ft | 446 kts | 207° |
| 2026-04-30 12:15 | -28.92921 | 152.53767 | 25888 ft | 448 kts | 207° |
| 2026-04-30 12:16 | -28.95690 | 152.52126 | 26235 ft | 449 kts | 208° |
| 2026-04-30 12:16 | -28.98462 | 152.50478 | 26615 ft | 450 kts | 208° |
| 2026-04-30 12:16 | -29.01239 | 152.48824 | 26960 ft | 451 kts | 208° |
| 2026-04-30 12:16 | -29.04026 | 152.47161 | 27300 ft | 452 kts | 208° |
| 2026-04-30 12:17 | -29.09629 | 152.43813 | 27949 ft | 457 kts | 208° |
| 2026-04-30 12:17 | -29.12457 | 152.42125 | 28270 ft | 459 kts | 208° |
| 2026-04-30 12:17 | -29.15291 | 152.40429 | 28594 ft | 461 kts | 208° |
| 2026-04-30 12:18 | -29.18133 | 152.38730 | 29017 ft | 460 kts | 208° |
| 2026-04-30 12:18 | -29.20925 | 152.37061 | 29481 ft | 458 kts | 208° |
| 2026-04-30 12:18 | -29.23740 | 152.35376 | 29938 ft | 456 kts | 208° |
| 2026-04-30 12:18 | -29.26548 | 152.33694 | 30394 ft | 455 kts | 208° |
| 2026-04-30 12:19 | -29.29344 | 152.32017 | 30795 ft | 453 kts | 208° |
| 2026-04-30 12:19 | -29.32137 | 152.30341 | 31139 ft | 453 kts | 208° |
| 2026-04-30 12:19 | -29.34929 | 152.28671 | 31497 ft | 452 kts | 208° |
| 2026-04-30 12:19 | -29.37714 | 152.27008 | 31860 ft | 451 kts | 209° |
| 2026-04-30 12:20 | -29.40490 | 152.25346 | 32217 ft | 450 kts | 209° |
| 2026-04-30 12:20 | -29.43221 | 152.23705 | 32581 ft | 449 kts | 209° |
| 2026-04-30 12:20 | -29.45984 | 152.22041 | 32947 ft | 447 kts | 209° |
| 2026-04-30 12:20 | -29.48732 | 152.20386 | 33287 ft | 446 kts | 210° |
| 2026-04-30 12:21 | -29.51480 | 152.18729 | 33647 ft | 445 kts | 210° |
| 2026-04-30 12:21 | -29.54213 | 152.17078 | 33999 ft | 444 kts | 210° |
| 2026-04-30 12:21 | -29.56942 | 152.15429 | 34353 ft | 443 kts | 210° |
| 2026-04-30 12:21 | -29.59666 | 152.13787 | 34648 ft | 442 kts | 210° |
| 2026-04-30 12:22 | -29.62385 | 152.12148 | 34909 ft | 441 kts | 210° |
| 2026-04-30 12:22 | -29.65100 | 152.10509 | 35154 ft | 442 kts | 210° |
| 2026-04-30 12:22 | -29.67823 | 152.08864 | 35396 ft | 442 kts | 210° |
| 2026-04-30 12:22 | -29.70650 | 152.07454 | 35622 ft | 445 kts | 201° |
| 2026-04-30 12:23 | -29.73611 | 152.06548 | 35849 ft | 448 kts | 195° |
| 2026-04-30 12:23 | -29.76654 | 152.05751 | 36107 ft | 448 kts | 195° |
| 2026-04-30 12:23 | -29.79688 | 152.04966 | 36341 ft | 448 kts | 195° |
| 2026-04-30 12:23 | -29.82741 | 152.04180 | 36435 ft | 449 kts | 195° |
| 2026-04-30 12:24 | -29.88849 | 152.02598 | 36455 ft | 450 kts | 195° |
| 2026-04-30 12:24 | -29.94950 | 152.00992 | 36456 ft | 450 kts | 195° |
| 2026-04-30 12:25 | -30.01020 | 151.99400 | 36460 ft | 450 kts | 195° |
| 2026-04-30 12:25 | -30.07121 | 151.97807 | 36462 ft | 450 kts | 195° |
| 2026-04-30 12:26 | -30.13217 | 151.96206 | 36468 ft | 450 kts | 195° |
| 2026-04-30 12:26 | -30.19326 | 151.94601 | 36476 ft | 450 kts | 195° |
| 2026-04-30 12:27 | -30.25436 | 151.93000 | 36477 ft | 450 kts | 195° |
| 2026-04-30 12:27 | -30.31499 | 151.91384 | 36478 ft | 449 kts | 198° |
| 2026-04-30 12:28 | -30.37310 | 151.88846 | 36479 ft | 447 kts | 204° |
| 2026-04-30 12:28 | -30.43082 | 151.86164 | 36481 ft | 447 kts | 204° |
| 2026-04-30 12:29 | -30.48853 | 151.83486 | 36486 ft | 447 kts | 204° |
| 2026-04-30 12:29 | -30.54588 | 151.80823 | 36478 ft | 447 kts | 204° |
| 2026-04-30 12:30 | -30.60349 | 151.78133 | 36473 ft | 446 kts | 204° |
| 2026-04-30 12:30 | -30.66103 | 151.75441 | 36472 ft | 446 kts | 204° |
| 2026-04-30 12:31 | -30.71856 | 151.72741 | 36481 ft | 446 kts | 204° |
| 2026-04-30 12:31 | -30.77603 | 151.70044 | 36477 ft | 445 kts | 204° |
| 2026-04-30 12:32 | -30.83314 | 151.67371 | 36472 ft | 445 kts | 204° |
| 2026-04-30 12:32 | -30.89065 | 151.64676 | 36473 ft | 446 kts | 204° |
| 2026-04-30 12:33 | -30.94815 | 151.61970 | 36482 ft | 445 kts | 204° |
| 2026-04-30 12:33 | -31.00560 | 151.59270 | 36481 ft | 445 kts | 204° |
| 2026-04-30 12:34 | -31.06262 | 151.56586 | 36477 ft | 445 kts | 204° |
| 2026-04-30 12:34 | -31.12001 | 151.53868 | 36483 ft | 445 kts | 204° |
| 2026-04-30 12:35 | -31.17735 | 151.51150 | 36486 ft | 445 kts | 204° |
| 2026-04-30 12:35 | -31.23474 | 151.48438 | 36481 ft | 445 kts | 204° |
| 2026-04-30 12:36 | -31.29166 | 151.45737 | 36486 ft | 444 kts | 204° |
| 2026-04-30 12:36 | -31.34895 | 151.43020 | 36482 ft | 444 kts | 204° |
| 2026-04-30 12:37 | -31.40622 | 151.40312 | 36480 ft | 444 kts | 203° |
| 2026-04-30 12:37 | -31.46387 | 151.37725 | 36476 ft | 443 kts | 202° |
| 2026-04-30 12:38 | -31.52122 | 151.35215 | 36472 ft | 443 kts | 202° |
| 2026-04-30 12:38 | -31.57882 | 151.32664 | 36471 ft | 443 kts | 202° |
| 2026-04-30 12:39 | -31.63640 | 151.30084 | 36470 ft | 443 kts | 202° |
| 2026-04-30 12:39 | -31.69392 | 151.27489 | 36466 ft | 443 kts | 202° |
| 2026-04-30 12:40 | -31.75108 | 151.24915 | 36467 ft | 443 kts | 202° |
| 2026-04-30 12:40 | -31.80872 | 151.22333 | 36472 ft | 443 kts | 202° |
| 2026-04-30 12:41 | -31.86635 | 151.19746 | 36454 ft | 443 kts | 202° |
| 2026-04-30 12:41 | -31.92385 | 151.17144 | 36460 ft | 443 kts | 202° |
| 2026-04-30 12:42 | -31.98143 | 151.14552 | 36469 ft | 444 kts | 202° |
| 2026-04-30 12:42 | -32.03880 | 151.11988 | 36458 ft | 444 kts | 202° |
| 2026-04-30 12:43 | -32.09645 | 151.09403 | 36462 ft | 443 kts | 202° |
| 2026-04-30 12:43 | -32.15411 | 151.06811 | 36453 ft | 444 kts | 202° |
| 2026-04-30 12:44 | -32.21180 | 151.04213 | 36455 ft | 443 kts | 202° |
| 2026-04-30 12:44 | -32.26906 | 151.01630 | 36456 ft | 443 kts | 202° |
| 2026-04-30 12:45 | -32.29787 | 151.00332 | 36288 ft | 443 kts | 202° |
| 2026-04-30 12:45 | -32.32662 | 150.99037 | 36044 ft | 441 kts | 202° |
| 2026-04-30 12:45 | -32.35529 | 150.97745 | 35802 ft | 441 kts | 202° |
| 2026-04-30 12:45 | -32.38387 | 150.96452 | 35256 ft | 441 kts | 202° |
| 2026-04-30 12:46 | -32.41259 | 150.95149 | 34566 ft | 443 kts | 201° |
| 2026-04-30 12:46 | -32.44150 | 150.93835 | 33675 ft | 447 kts | 201° |
| 2026-04-30 12:46 | -32.47062 | 150.92662 | 32911 ft | 449 kts | 194° |
| 2026-04-30 12:46 | -32.50139 | 150.92008 | 32075 ft | 451 kts | 185° |
| 2026-04-30 12:47 | -32.53287 | 150.91936 | 31203 ft | 455 kts | 176° |
| 2026-04-30 12:47 | -32.56447 | 150.92403 | 30220 ft | 461 kts | 172° |
| 2026-04-30 12:47 | -32.59630 | 150.92976 | 29216 ft | 463 kts | 172° |
| 2026-04-30 12:47 | -32.62827 | 150.93547 | 28233 ft | 465 kts | 172° |
| 2026-04-30 12:48 | -32.66041 | 150.94118 | 27161 ft | 469 kts | 171° |
| 2026-04-30 12:48 | -32.69285 | 150.94691 | 26145 ft | 473 kts | 171° |
| 2026-04-30 12:48 | -32.72517 | 150.95263 | 25552 ft | 466 kts | 171° |
| 2026-04-30 12:48 | -32.75672 | 150.95823 | 24844 ft | 464 kts | 171° |
| 2026-04-30 12:49 | -32.78854 | 150.96388 | 24133 ft | 460 kts | 171° |
| 2026-04-30 12:49 | -32.82008 | 150.96949 | 23369 ft | 456 kts | 171° |
| 2026-04-30 12:49 | -32.85125 | 150.97503 | 22699 ft | 450 kts | 171° |
| 2026-04-30 12:49 | -32.88200 | 150.98047 | 22027 ft | 445 kts | 171° |
| 2026-04-30 12:50 | -32.91245 | 150.98586 | 21352 ft | 440 kts | 171° |
| 2026-04-30 12:50 | -32.94254 | 150.99123 | 20699 ft | 435 kts | 171° |
| 2026-04-30 12:50 | -32.97192 | 150.99649 | 20062 ft | 430 kts | 171° |
| 2026-04-30 12:50 | -33.00139 | 151.00178 | 19427 ft | 426 kts | 171° |
| 2026-04-30 12:51 | -33.03059 | 151.00702 | 18833 ft | 423 kts | 171° |
| 2026-04-30 12:51 | -33.05957 | 151.01223 | 18188 ft | 420 kts | 171° |
| 2026-04-30 12:51 | -33.08830 | 151.01736 | 17623 ft | 415 kts | 171° |
| 2026-04-30 12:51 | -33.11674 | 151.02241 | 17082 ft | 411 kts | 171° |
| 2026-04-30 12:52 | -33.14491 | 151.02738 | 16545 ft | 407 kts | 171° |
| 2026-04-30 12:52 | -33.17286 | 151.03236 | 15992 ft | 404 kts | 171° |
| 2026-04-30 12:52 | -33.20013 | 151.03725 | 15458 ft | 400 kts | 171° |
| 2026-04-30 12:52 | -33.22754 | 151.04218 | 14896 ft | 397 kts | 171° |
| 2026-04-30 12:53 | -33.25479 | 151.04716 | 14334 ft | 394 kts | 171° |
| 2026-04-30 12:53 | -33.28178 | 151.05225 | 13711 ft | 391 kts | 171° |
| 2026-04-30 12:53 | -33.30849 | 151.05741 | 13126 ft | 387 kts | 170° |
| 2026-04-30 12:53 | -33.33493 | 151.06258 | 12541 ft | 383 kts | 170° |
| 2026-04-30 12:54 | -33.36116 | 151.06771 | 11933 ft | 381 kts | 170° |
| 2026-04-30 12:54 | -33.38716 | 151.07279 | 11444 ft | 375 kts | 170° |
| 2026-04-30 12:54 | -33.41230 | 151.07769 | 11306 ft | 358 kts | 170° |
| 2026-04-30 12:54 | -33.43612 | 151.08230 | 11198 ft | 344 kts | 170° |
| 2026-04-30 12:55 | -33.45927 | 151.08670 | 11080 ft | 330 kts | 170° |
| 2026-04-30 12:55 | -33.48144 | 151.09095 | 10953 ft | 315 kts | 170° |
| 2026-04-30 12:55 | -33.50262 | 151.09497 | 10644 ft | 303 kts | 169° |
| 2026-04-30 12:55 | -33.52327 | 151.09892 | 10282 ft | 295 kts | 169° |
| 2026-04-30 12:56 | -33.54350 | 151.10279 | 10199 ft | 295 kts | 169° |
| 2026-04-30 12:56 | -33.56378 | 151.10671 | 10084 ft | 296 kts | 169° |
| 2026-04-30 12:56 | -33.58413 | 151.11062 | 9653 ft | 294 kts | 169° |
| 2026-04-30 12:56 | -33.60405 | 151.11444 | 9264 ft | 294 kts | 169° |
| 2026-04-30 12:57 | -33.62416 | 151.11832 | 8949 ft | 290 kts | 169° |
| 2026-04-30 12:57 | -33.64393 | 151.12219 | 8803 ft | 288 kts | 169° |
| 2026-04-30 12:57 | -33.66375 | 151.12612 | 8648 ft | 288 kts | 169° |
| 2026-04-30 12:57 | -33.68349 | 151.13008 | 8484 ft | 287 kts | 168° |
| 2026-04-30 12:58 | -33.70318 | 151.13403 | 8316 ft | 287 kts | 169° |
| 2026-04-30 12:58 | -33.72283 | 151.13788 | 8145 ft | 285 kts | 169° |
| 2026-04-30 12:58 | -33.74241 | 151.14167 | 7912 ft | 284 kts | 169° |
| 2026-04-30 12:58 | -33.76185 | 151.14541 | 7727 ft | 283 kts | 169° |
| 2026-04-30 12:59 | -33.78132 | 151.14913 | 7552 ft | 282 kts | 169° |
| 2026-04-30 12:59 | -33.80038 | 151.15262 | 7392 ft | 281 kts | 173° |
| 2026-04-30 12:59 | -33.81992 | 151.15207 | 7227 ft | 282 kts | 187° |
| 2026-04-30 12:59 | -33.83909 | 151.14687 | 7061 ft | 282 kts | 192° |
| 2026-04-30 13:00 | -33.85813 | 151.14133 | 6890 ft | 282 kts | 192° |
| 2026-04-30 13:00 | -33.87712 | 151.13584 | 6721 ft | 281 kts | 191° |
| 2026-04-30 13:00 | -33.89618 | 151.13038 | 6548 ft | 281 kts | 191° |
| 2026-04-30 13:00 | -33.91516 | 151.12492 | 6387 ft | 281 kts | 191° |
| 2026-04-30 13:01 | -33.93419 | 151.11944 | 6218 ft | 280 kts | 192° |
| 2026-04-30 13:01 | -33.95315 | 151.11398 | 6051 ft | 280 kts | 191° |
| 2026-04-30 13:01 | -33.97184 | 151.10861 | 5879 ft | 280 kts | 191° |
| 2026-04-30 13:01 | -33.99073 | 151.10318 | 5682 ft | 279 kts | 191° |
| 2026-04-30 13:02 | -34.00958 | 151.09775 | 5512 ft | 278 kts | 192° |
| 2026-04-30 13:02 | -34.02837 | 151.09232 | 5328 ft | 277 kts | 192° |
| 2026-04-30 13:02 | -34.04713 | 151.08688 | 5147 ft | 276 kts | 191° |
| 2026-04-30 13:02 | -34.06583 | 151.08151 | 4966 ft | 276 kts | 190° |
| 2026-04-30 13:03 | -34.08483 | 151.07967 | 4788 ft | 273 kts | 174° |
| 2026-04-30 13:03 | -34.10346 | 151.08336 | 4606 ft | 272 kts | 165° |
| 2026-04-30 13:03 | -34.12200 | 151.08830 | 4435 ft | 273 kts | 166° |
| 2026-04-30 13:03 | -34.14035 | 151.09306 | 4253 ft | 273 kts | 166° |
| 2026-04-30 13:04 | -34.15890 | 151.09784 | 4083 ft | 272 kts | 166° |
| 2026-04-30 13:04 | -34.17737 | 151.10262 | 3903 ft | 271 kts | 166° |
| 2026-04-30 13:04 | -34.19568 | 151.10790 | 3688 ft | 270 kts | 158° |
| 2026-04-30 13:04 | -34.21069 | 151.12013 | 3483 ft | 254 kts | 126° |
| 2026-04-30 13:05 | -34.21806 | 151.13838 | 3359 ft | 235 kts | 95° |
| 2026-04-30 13:05 | -34.21722 | 151.15727 | 3204 ft | 221 kts | 76° |
| 2026-04-30 13:05 | -34.21384 | 151.17511 | 3059 ft | 218 kts | 73° |
| 2026-04-30 13:06 | -34.19786 | 151.20461 | 3014 ft | 215 kts | 43° |
| 2026-04-30 13:06 | -34.18741 | 151.21689 | 3026 ft | 205 kts | 43° |
| 2026-04-30 13:06 | -34.17594 | 151.22656 | 3011 ft | 201 kts | 24° |
| 2026-04-30 13:06 | -34.16244 | 151.23055 | 3006 ft | 202 kts | 4° |
| 2026-04-30 13:07 | -34.14847 | 151.22863 | 3008 ft | 204 kts | 350° |
| 2026-04-30 13:07 | -34.13464 | 151.22504 | 3011 ft | 203 kts | 349° |
| 2026-04-30 13:07 | -34.12089 | 151.22141 | 3005 ft | 203 kts | 350° |
| 2026-04-30 13:07 | -34.10700 | 151.21777 | 2831 ft | 204 kts | 350° |
| 2026-04-30 13:08 | -34.09329 | 151.21420 | 2585 ft | 203 kts | 349° |
| 2026-04-30 13:08 | -34.07995 | 151.21072 | 2345 ft | 187 kts | 350° |
| 2026-04-30 13:08 | -34.06780 | 151.20755 | 2088 ft | 171 kts | 350° |
| 2026-04-30 13:08 | -34.05664 | 151.20464 | 1882 ft | 155 kts | 350° |
| 2026-04-30 13:09 | -34.04649 | 151.20200 | 1675 ft | 146 kts | 351° |
| 2026-04-30 13:09 | -34.03674 | 151.19947 | 1476 ft | 142 kts | 352° |
| 2026-04-30 13:09 | -34.02714 | 151.19698 | 1290 ft | 140 kts | 351° |
| 2026-04-30 13:09 | -34.01763 | 151.19451 | 1103 ft | 140 kts | 351° |
| 2026-04-30 13:10 | -34.00827 | 151.19208 | 942 ft | 139 kts | 350° |
| 2026-04-30 13:10 | -33.99880 | 151.18957 | 770 ft | 140 kts | 351° |
| 2026-04-30 13:10 | -33.98920 | 151.18708 | 508 ft | 142 kts | 347° |
| 2026-04-30 13:10 | -33.97949 | 151.18457 | 309 ft | 144 kts | 346° |
| 2026-04-30 13:11 | -33.96960 | 151.18203 | 160 ft | 146 kts | 344° |
| 2026-04-30 13:11 | -33.95969 | 151.17941 | 36 ft | 143 kts | 345° |
| 2026-04-30 13:11 | -33.95134 | 151.17729 | 28 ft | 99 kts | 348° |
| 2026-04-30 13:11 | -33.94598 | 151.17590 | 30 ft | 65 kts | 347° |
| 2026-04-30 13:12 | -33.94220 | 151.17491 | 30 ft | 44 kts | 348° |
| 2026-04-30 13:12 | -33.94000 | 151.17435 | 26 ft | 25 kts | 348° |
| 2026-04-30 13:12 | -33.93907 | 151.17453 | 27 ft | 12 kts | 65° |
| 2026-04-30 13:13 | -33.93868 | 151.17660 | 29 ft | 13 kts | 75° |
| 2026-04-30 13:13 | -33.93798 | 151.17700 | 30 ft | 13 kts | 351° |
| 2026-04-30 13:13 | -33.93611 | 151.17618 | 30 ft | 14 kts | 341° |
| 2026-04-30 13:14 | -33.93554 | 151.17612 | 30 ft | 2 kts | 47° |
| 2026-04-30 13:14 | -33.93554 | 151.17639 | 30 ft | 4 kts | 93° |
| 2026-04-30 13:14 | -33.93559 | 151.17682 | 30 ft | 1 kts | 99° |